Jupiter, FL (33458)

5:13 AM EDT on August 29, 2014 (GMT -0400)
Pennock Ln. | Change Station
CLOSE
Current Station
Personal Weather Station
Location: Jupiter, FL
Elevation: 20 ft
Nearby Weather Stations

Elev 20 ft 26.94 °N, 80.11 °W | Updated 4 seconds ago

Clear
Clear
75.9 °F
Feels Like 76 °F
N
0.0
Wind Variable Wind from SSW
Gusts 0.0 mph

Today
High -- | Low -- °F
--% Chance of Precip.
Yesterday
High -- | Low -- °F
Precip. -- in
6:58 AM 7:43 PM
Waxing Crescent, 13% visible
Pressure 30.00 in
Visibility 10.0 miles
Clouds Few 2500 ft
Mostly Cloudy 25000 ft
Heat Index 76 °F
Dew Point 73 °F
Humidity 90%
Rainfall 0.00 in
Snow Depth Not available.
UV 0.0 out of 12
Pollen 5.00 out of 12
Air Quality Not available.
Flu Activity Not available.
METAR KPBI 290853Z 32003KT 10SM FEW025 BKN250 25/23 A3000 RMK AO2 SLP158 T02500233 55001

More Conditions Fewer Conditions

Pressure 30.00 in
Visibility 10.0 miles
Clouds Few 2500 ft
Mostly Cloudy 25000 ft
Heat Index 76 °F
Dew Point 73 °F
Humidity 90%
Rainfall 0.00 in
Snow Depth Not available.
UV 0.0 out of 12
Pollen 5.00 out of 12
Air Quality Not available.
Flu Activity Not available.
METAR KPBI 290853Z 32003KT 10SM FEW025 BKN250 25/23 A3000 RMK AO2 SLP158 T02500233 55001

More Conditions Fewer Conditions

10-Day Weather Forecast

Almanac

Astronomy

Aug. 29, 2014 Rise Set
Actual Time 6:58 AM EDT 7:43 PM EDT
Civil Twilight 6:34 AM EDT 8:07 PM EDT
Nautical Twilight 6:06 AM EDT 8:35 PM EDT
Astronomical Twilight 5:38 AM EDT 9:03 PM EDT
Moon 10:22 AM EDT 10:06 PM EDT
Length of Visible Light 13h 32m
Length of Day
12h 45m
Tomorrow will be 1m 30s shorter.
Waxing Crescent, 13% of the Moon is Illuminated
Today
Waxing Crescent
Sep 2
First Quarter
Sep 8
Full
Sep 15
Last Quarter
Sep 24
New

Today's Extremes

State Highs State Lows

Community

WunderPhotos

Upload Photos

1,748,203 photos uploaded!

Nearby

Air Quality

  Air Quality AQ Index Pollutant
Friday Good
OZONE
Friday Good
PM2.5

Snow Depth

Station Depth Elevation
No new snow has been reported.

Earthquake Activity

City Distance Mag. Time & Date
No recent earthquake activity has been reported nearby.
Minimum magnitude displayed is 2.5.

Coastal Water Temperatures

Place Temperature
Lake Worth, FL 87.1 °F
Virginia Key, FL 86.0 °F

Nearby Weather Stations